createdAt,value
2018-05-13T00:02:28.212Z,7.57
2018-05-13T00:07:19.687Z,8.50
2018-05-13T00:12:11.945Z,7.37
2018-05-13T00:17:04.204Z,6.87
2018-05-13T00:21:55.698Z,6.37
2018-05-13T00:26:47.211Z,6.57
2018-05-13T00:31:39.156Z,8.10
2018-05-13T00:36:30.713Z,8.13
2018-05-13T00:41:22.215Z,7.67
2018-05-13T00:46:13.743Z,6.93
2018-05-13T00:51:05.282Z,6.73
2018-05-13T00:55:56.786Z,7.63
2018-05-13T01:00:48.276Z,6.60
2018-05-13T01:05:39.777Z,7.10
2018-05-13T01:10:31.292Z,8.87
2018-05-13T01:15:22.762Z,7.10
2018-05-13T01:20:14.255Z,7.50
2018-05-13T01:25:05.826Z,7.13
2018-05-13T01:29:57.319Z,7.00
2018-05-13T01:34:48.832Z,7.40
2018-05-13T01:39:42.109Z,6.87
2018-05-13T01:44:34.330Z,7.13
2018-05-13T01:49:25.937Z,7.13
2018-05-13T01:54:17.442Z,7.10
2018-05-13T01:59:09.732Z,8.57
2018-05-13T02:04:01.228Z,7.80
2018-05-13T02:08:53.476Z,7.40
2018-05-13T02:13:45.738Z,6.90
2018-05-13T02:18:37.262Z,6.60
2018-05-13T02:23:28.771Z,10.47
2018-05-13T02:28:20.279Z,7.40
2018-05-13T02:33:11.781Z,6.80
2018-05-13T02:38:03.290Z,7.40
2018-05-13T02:42:55.906Z,7.87
2018-05-13T02:47:47.413Z,5.00
2018-05-13T02:52:39.098Z,5.43
2018-05-13T02:57:30.627Z,5.23
2018-05-13T03:02:22.117Z,4.27
2018-05-13T03:07:13.597Z,5.20
2018-05-13T03:12:05.093Z,3.90
2018-05-13T03:16:56.644Z,3.80
2018-05-13T03:21:48.149Z,4.17
2018-05-13T03:26:39.668Z,4.67
2018-05-13T03:31:32.268Z,5.20
2018-05-13T03:36:23.795Z,3.90
2018-05-13T03:41:15.266Z,5.23
2018-05-13T03:46:06.826Z,6.50
2018-05-13T03:50:59.059Z,4.47
2018-05-13T03:55:51.291Z,5.47
2018-05-13T04:00:42.789Z,4.93
2018-05-13T04:05:34.308Z,6.20
2018-05-13T04:10:44.430Z,4.77
2018-05-13T04:15:35.957Z,5.40
2018-05-13T04:20:29.115Z,6.10
2018-05-13T04:25:20.628Z,5.47
2018-05-13T04:30:12.140Z,4.87
2018-05-13T04:35:04.391Z,4.83
2018-05-13T04:39:56.629Z,6.07
2018-05-13T04:44:48.850Z,6.63
2018-05-13T04:49:40.330Z,6.43
2018-05-13T04:54:31.815Z,6.77
2018-05-13T04:59:23.487Z,6.00
2018-05-13T05:04:15.751Z,9.23
2018-05-13T05:09:07.245Z,6.90
2018-05-13T05:13:58.760Z,6.23
2018-05-13T05:18:50.256Z,7.70
2018-05-13T05:23:41.744Z,8.30
2018-05-13T05:28:33.312Z,8.97
2018-05-13T05:33:24.754Z,7.77
2018-05-13T05:38:16.238Z,7.60
2018-05-13T05:43:07.744Z,7.37
2018-05-13T05:48:00.189Z,8.43
2018-05-13T05:52:51.741Z,6.90
2018-05-13T05:57:43.253Z,9.23
2018-05-13T06:02:34.767Z,7.67
2018-05-13T06:07:26.983Z,7.20
2018-05-13T06:12:18.555Z,8.40
2018-05-13T06:17:10.011Z,6.87
2018-05-13T06:22:01.482Z,7.80
2018-05-13T06:26:52.988Z,8.47
2018-05-13T06:31:44.512Z,8.17
2018-05-13T06:36:36.017Z,8.00
2018-05-13T06:41:28.285Z,13.37
2018-05-13T06:46:19.786Z,11.67
2018-05-13T06:51:11.358Z,13.77
2018-05-13T06:56:03.104Z,12.30
2018-05-13T07:00:54.600Z,15.90
2018-05-13T07:05:46.815Z,14.40
2018-05-13T07:10:38.341Z,16.47
2018-05-13T07:15:29.832Z,15.37
2018-05-13T07:20:22.061Z,16.23
2018-05-13T07:25:13.567Z,16.33
2018-05-13T07:30:05.101Z,20.43
2018-05-13T07:34:56.615Z,19.77
2018-05-13T07:39:48.149Z,21.23
2018-05-13T07:44:39.673Z,22.53
2018-05-13T07:49:31.210Z,23.57
2018-05-13T07:54:22.705Z,24.00
2018-05-13T07:59:15.021Z,25.30
2018-05-13T08:04:06.576Z,24.53
2018-05-13T08:08:58.097Z,25.60
2018-05-13T08:13:49.796Z,24.50
2018-05-13T08:18:41.321Z,22.70
2018-05-13T08:23:32.855Z,24.30
2018-05-13T08:28:24.398Z,26.03
2018-05-13T08:33:15.899Z,24.57
2018-05-13T08:38:08.193Z,26.03
2018-05-13T08:42:59.755Z,25.07
2018-05-13T08:52:47.248Z,24.40
2018-05-13T08:57:38.731Z,24.87
2018-05-13T09:02:30.948Z,26.27
2018-05-13T09:07:23.269Z,26.37
2018-05-13T09:12:14.757Z,27.17
2018-05-13T09:17:06.251Z,30.47
2018-05-13T09:21:57.752Z,30.60
2018-05-13T09:26:49.342Z,30.00
2018-05-13T09:31:41.607Z,28.60
2018-05-13T09:36:33.122Z,30.20
2018-05-13T09:41:25.367Z,32.73
2018-05-13T09:46:17.606Z,32.23
2018-05-13T09:51:09.076Z,29.90
2018-05-13T09:56:00.582Z,31.93
2018-05-13T10:00:53.807Z,31.40
2018-05-13T10:05:45.323Z,31.60
2018-05-13T10:10:36.827Z,33.77
2018-05-13T10:15:29.072Z,33.00
2018-05-13T10:20:21.329Z,36.57
2018-05-13T10:25:13.601Z,37.83
2018-05-13T10:30:05.157Z,38.93
2018-05-13T10:34:56.668Z,40.17
2018-05-13T10:39:48.122Z,40.03
2018-05-13T10:44:39.611Z,40.43
2018-05-13T10:49:31.900Z,40.07
2018-05-13T10:54:23.457Z,38.40
2018-05-13T10:59:15.021Z,37.03
2018-05-13T11:04:06.536Z,40.43
2018-05-13T11:08:58.037Z,40.17
2018-05-13T11:13:49.572Z,40.20
2018-05-13T11:18:41.121Z,39.70
2018-05-13T11:23:32.861Z,38.07
2018-05-13T11:28:27.064Z,42.13
2018-05-13T11:33:18.562Z,37.73
2018-05-13T11:38:10.639Z,37.50
2018-05-13T11:43:02.167Z,38.93
2018-05-13T11:47:53.644Z,37.03
2018-05-13T11:52:45.147Z,34.27
2018-05-13T11:57:36.653Z,38.07
2018-05-13T12:02:28.361Z,32.93
2018-05-13T12:07:20.692Z,34.27
2018-05-13T12:12:12.413Z,34.03
2018-05-13T12:17:04.649Z,32.37
2018-05-13T12:21:56.213Z,34.27
2018-05-13T12:26:47.722Z,34.83
2018-05-13T12:31:39.221Z,32.70
2018-05-13T12:36:30.787Z,36.50
2018-05-13T12:41:22.296Z,30.87
2018-05-13T12:46:13.855Z,31.13
2018-05-13T12:51:05.386Z,30.27
2018-05-13T12:55:56.996Z,33.13
2018-05-13T13:00:48.482Z,32.07
2018-05-13T13:05:40.007Z,29.87
2018-05-13T13:10:31.539Z,29.00
2018-05-13T13:15:23.053Z,28.10
2018-05-13T13:20:14.566Z,29.43
2018-05-13T13:25:06.049Z,28.63
2018-05-13T13:29:57.715Z,29.97
2018-05-13T13:34:50.005Z,28.87
2018-05-13T13:39:41.490Z,27.97
2018-05-13T13:44:32.971Z,27.40
2018-05-13T13:49:24.518Z,25.73
2018-05-13T13:54:16.064Z,25.47
2018-05-13T13:59:08.295Z,25.43
2018-05-13T14:03:59.819Z,25.07
2018-05-13T14:08:52.137Z,24.70
2018-05-13T14:13:44.377Z,24.63
2018-05-13T14:18:35.959Z,24.77
2018-05-13T14:23:27.435Z,25.73
2018-05-13T14:28:18.960Z,24.43
2018-05-13T14:33:10.498Z,24.20
2018-05-13T14:38:02.794Z,23.17
2018-05-13T14:42:54.289Z,23.23
2018-05-13T14:47:45.934Z,23.83
2018-05-13T14:52:37.446Z,24.23
2018-05-13T14:57:28.968Z,23.37
2018-05-13T15:02:20.482Z,26.27
2018-05-13T15:07:25.065Z,26.80
2018-05-13T15:12:16.528Z,28.63
2018-05-13T15:17:08.776Z,27.47
2018-05-13T15:22:01.683Z,28.10
2018-05-13T15:26:53.154Z,31.20
2018-05-13T15:31:44.676Z,30.87
2018-05-13T15:36:36.169Z,31.67
2018-05-13T15:41:27.681Z,32.43
2018-05-13T15:46:19.951Z,32.77
2018-05-13T15:51:11.445Z,33.23
2018-05-13T15:56:03.716Z,31.47
2018-05-13T16:00:55.981Z,33.77
2018-05-13T16:05:49.053Z,32.03
2018-05-13T16:10:40.511Z,32.17
2018-05-13T16:15:32.018Z,32.07
2018-05-13T16:20:23.511Z,32.47
2018-05-13T16:25:15.008Z,33.07
2018-05-13T16:30:06.557Z,33.77
2018-05-13T16:34:59.074Z,32.27
2018-05-13T16:39:51.333Z,32.43
2018-05-13T16:44:42.838Z,33.47
2018-05-13T16:49:35.067Z,31.77
2018-05-13T16:54:27.327Z,32.70
2018-05-13T16:59:18.796Z,33.80
2018-05-13T17:04:10.270Z,32.13
2018-05-13T17:09:01.896Z,30.87
2018-05-13T17:13:53.391Z,33.00
2018-05-13T17:18:44.979Z,31.50
2018-05-13T17:23:36.531Z,30.20
2018-05-13T17:28:27.996Z,29.67
2018-05-13T17:33:19.911Z,29.17
2018-05-13T17:38:11.421Z,28.97
2018-05-13T17:43:02.937Z,27.80
2018-05-13T17:47:54.533Z,28.10
2018-05-13T17:52:45.971Z,29.20
2018-05-13T17:57:38.099Z,27.73
2018-05-13T18:02:29.599Z,31.60
2018-05-13T18:07:21.835Z,28.30
2018-05-13T18:12:14.033Z,25.37
2018-05-13T18:17:06.261Z,27.00
2018-05-13T18:21:57.771Z,28.73
2018-05-13T18:26:49.289Z,27.53
2018-05-13T18:31:40.845Z,28.33
2018-05-13T18:36:32.356Z,31.90
2018-05-13T18:41:23.901Z,29.60
2018-05-13T18:46:15.630Z,35.53
2018-05-13T18:51:07.593Z,34.33
2018-05-13T18:55:59.491Z,34.30
2018-05-13T19:00:51.865Z,34.67
2018-05-13T19:05:43.728Z,36.70
2018-05-13T19:10:35.393Z,38.40
2018-05-13T19:15:27.015Z,33.73
2018-05-13T19:20:18.661Z,36.03
2018-05-13T19:25:10.584Z,38.10
2018-05-13T19:30:02.629Z,36.73
2018-05-13T19:34:54.267Z,38.70
2018-05-13T19:39:45.930Z,40.60
2018-05-13T19:44:37.645Z,38.67
2018-05-13T19:49:29.271Z,39.67
2018-05-13T19:54:21.427Z,40.37
2018-05-13T19:59:13.183Z,39.93
2018-05-13T20:04:04.942Z,39.53
2018-05-13T20:08:56.751Z,42.13
2018-05-13T20:13:48.340Z,39.13
2018-05-13T20:18:40.684Z,41.83
2018-05-13T20:23:32.985Z,40.23
2018-05-13T20:28:24.630Z,38.00
2018-05-13T20:33:16.162Z,43.00
2018-05-13T20:38:08.205Z,40.57
2018-05-13T20:42:59.713Z,40.23
2018-05-13T20:47:51.268Z,39.97
2018-05-13T20:52:42.764Z,38.43
2018-05-13T20:57:36.127Z,47.43
2018-05-13T21:02:27.616Z,40.90
2018-05-13T21:07:19.133Z,45.63
2018-05-13T21:12:10.650Z,41.97
2018-05-13T21:17:02.148Z,37.37
2018-05-13T21:21:54.420Z,38.20
2018-05-13T21:26:46.025Z,42.87
2018-05-13T21:31:37.522Z,39.73
2018-05-13T21:36:29.002Z,41.50
2018-05-13T21:41:20.498Z,48.03
2018-05-13T21:46:12.370Z,42.47
2018-05-13T21:51:03.871Z,43.37
2018-05-13T21:55:55.405Z,46.17
2018-05-13T22:00:46.929Z,43.73
2018-05-13T22:05:38.407Z,49.37
2018-05-13T22:10:29.905Z,49.43
2018-05-13T22:15:21.436Z,44.73
2018-05-13T22:20:12.960Z,44.53
2018-05-13T22:25:04.470Z,42.47
2018-05-13T22:29:56.708Z,44.33
2018-05-13T22:34:48.186Z,44.33
2018-05-13T22:39:39.706Z,43.67
2018-05-13T22:44:31.206Z,43.23
2018-05-13T22:49:22.778Z,41.70
2018-05-13T22:54:14.333Z,40.47
2018-05-13T22:59:05.855Z,41.97
2018-05-13T23:03:57.334Z,39.43
2018-05-13T23:08:49.575Z,40.53
2018-05-13T23:13:41.088Z,40.33
2018-05-13T23:18:32.687Z,41.47
2018-05-13T23:23:24.123Z,39.83
2018-05-13T23:28:15.635Z,45.40
2018-05-13T23:33:07.952Z,45.17
2018-05-13T23:37:59.492Z,50.07
2018-05-13T23:42:50.983Z,45.93
2018-05-13T23:47:42.514Z,52.73
2018-05-13T23:52:34.024Z,56.40
2018-05-13T23:57:26.280Z,49.70
